createdAt,value
2019-04-26T00:01:54.830Z,16.70
2019-04-26T00:04:25.742Z,16.70
2019-04-26T00:06:56.542Z,16.70
2019-04-26T00:09:35.277Z,16.70
2019-04-26T00:12:24.005Z,16.60
2019-04-26T00:15:12.610Z,16.60
2019-04-26T00:17:49.746Z,16.50
2019-04-26T00:20:21.088Z,16.60
2019-04-26T00:22:51.850Z,16.50
2019-04-26T00:25:22.829Z,16.60
2019-04-26T00:27:53.298Z,16.60
2019-04-26T00:30:23.900Z,16.60
2019-04-26T00:32:56.573Z,16.50
2019-04-26T00:35:27.196Z,16.40
2019-04-26T00:37:57.899Z,16.40
2019-04-26T00:40:28.328Z,16.50
2019-04-26T00:43:00.852Z,16.40
2019-04-26T00:45:33.816Z,16.40
2019-04-26T00:48:04.831Z,16.30
2019-04-26T00:50:35.835Z,16.20
2019-04-26T00:53:08.384Z,16.20
2019-04-26T00:55:39.307Z,16.20
2019-04-26T00:58:10.358Z,16.10
2019-04-26T01:00:41.044Z,16.10
2019-04-26T01:03:11.538Z,16.00
2019-04-26T01:05:42.426Z,16.00
2019-04-26T01:08:12.974Z,15.90
2019-04-26T01:10:43.501Z,15.80
2019-04-26T01:13:14.136Z,15.80
2019-04-26T01:15:44.792Z,15.80
2019-04-26T01:18:16.707Z,15.70
2019-04-26T01:20:50.131Z,15.70
2019-04-26T01:23:22.954Z,15.50
2019-04-26T01:26:07.240Z,15.50
2019-04-26T01:28:51.880Z,15.50
2019-04-26T01:31:22.616Z,15.30
2019-04-26T01:33:53.296Z,15.40
2019-04-26T01:36:26.501Z,15.40
2019-04-26T01:39:00.806Z,15.20
2019-04-26T01:41:41.642Z,15.30
2019-04-26T01:44:22.755Z,15.10
2019-04-26T01:46:53.690Z,15.00
2019-04-26T01:49:24.958Z,15.10
2019-04-26T01:52:09.511Z,15.10
2019-04-26T01:54:43.418Z,15.20
2019-04-26T01:57:15.405Z,15.30
2019-04-26T01:59:51.854Z,15.40
2019-04-26T02:02:32.204Z,15.40
2019-04-26T02:05:06.388Z,15.40
2019-04-26T02:07:41.063Z,15.40
2019-04-26T02:10:17.646Z,15.50
2019-04-26T02:12:49.859Z,15.40
2019-04-26T02:15:24.452Z,15.30
2019-04-26T02:17:58.261Z,15.10
2019-04-26T02:20:51.946Z,15.10
2019-04-26T02:23:28.184Z,15.10
2019-04-26T02:26:03.973Z,15.00
2019-04-26T02:28:34.576Z,15.00
2019-04-26T02:31:06.639Z,14.90
2019-04-26T02:33:37.380Z,14.90
2019-04-26T02:36:08.107Z,14.70
2019-04-26T02:38:38.678Z,14.40
2019-04-26T02:41:09.373Z,14.40
2019-04-26T02:43:43.093Z,14.30
2019-04-26T02:46:21.567Z,14.20
2019-04-26T02:49:21.653Z,14.10
2019-04-26T02:52:32.005Z,13.90
2019-04-26T02:55:15.382Z,13.80
2019-04-26T02:57:51.912Z,13.80
2019-04-26T03:00:22.450Z,13.70
2019-04-26T03:03:01.310Z,13.80
2019-04-26T03:05:37.492Z,13.70
2019-04-26T03:08:15.355Z,13.70
2019-04-26T03:10:57.884Z,13.70
2019-04-26T03:13:56.586Z,13.80
2019-04-26T03:17:08.046Z,13.70
2019-04-26T03:19:58.474Z,13.80
2019-04-26T03:22:54.492Z,13.70
2019-04-26T03:25:57.939Z,13.80
2019-04-26T03:28:43.449Z,13.80
2019-04-26T03:32:02.511Z,13.70
2019-04-26T03:34:54.059Z,13.70
2019-04-26T03:37:58.993Z,13.60
2019-04-26T03:40:51.769Z,13.50
2019-04-26T03:43:49.917Z,13.50
2019-04-26T03:46:46.209Z,13.50
2019-04-26T03:49:39.240Z,13.60
2019-04-26T03:52:45.617Z,13.60
2019-04-26T03:56:06.689Z,13.90
2019-04-26T03:59:22.664Z,14.40
2019-04-26T04:02:09.831Z,14.50
2019-04-26T04:04:53.785Z,15.20
2019-04-26T04:07:37.122Z,15.30
2019-04-26T04:10:05.935Z,15.40
2019-04-26T04:12:58.736Z,16.20
2019-04-26T04:15:42.561Z,17.20
2019-04-26T04:18:19.954Z,18.00
2019-04-26T04:21:31.878Z,18.80
2019-04-26T04:24:09.471Z,19.50
2019-04-26T04:27:03.424Z,20.00
2019-04-26T04:30:06.936Z,20.50
2019-04-26T04:33:43.613Z,21.00
2019-04-26T04:36:23.211Z,21.80
2019-04-26T04:39:12.450Z,21.70
2019-04-26T04:42:17.754Z,22.70
2019-04-26T04:45:26.271Z,22.80
2019-04-26T04:48:24.526Z,23.50
2019-04-26T04:51:17.430Z,24.10
2019-04-26T04:53:56.843Z,24.50
2019-04-26T04:57:02.880Z,24.40
2019-04-26T04:59:54.269Z,24.90
2019-04-26T05:02:50.794Z,25.10
2019-04-26T05:06:07.445Z,25.10
2019-04-26T05:09:14.685Z,25.40
2019-04-26T05:12:05.479Z,25.70
2019-04-26T05:15:09.344Z,25.20
2019-04-26T05:18:07.160Z,25.00
2019-04-26T05:20:45.936Z,23.50
2019-04-26T05:23:40.553Z,24.10
2019-04-26T05:27:10.060Z,25.50
2019-04-26T05:30:29.358Z,26.50
2019-04-26T05:33:15.026Z,27.00
2019-04-26T05:36:29.380Z,27.20
2019-04-26T05:39:11.779Z,27.00
2019-04-26T05:42:41.696Z,28.20
2019-04-26T05:46:19.775Z,27.20
2019-04-26T05:49:33.606Z,28.70
2019-04-26T05:52:40.729Z,28.70
2019-04-26T05:55:36.773Z,28.60
2019-04-26T05:58:46.474Z,29.30
2019-04-26T06:02:12.326Z,29.20
2019-04-26T06:05:41.855Z,28.90
2019-04-26T06:09:03.762Z,29.90
2019-04-26T06:11:43.799Z,29.50
2019-04-26T06:14:36.883Z,29.20
2019-04-26T06:17:39.948Z,29.00
2019-04-26T06:20:30.673Z,29.00
2019-04-26T06:23:16.517Z,28.40
2019-04-26T06:26:06.915Z,28.40
2019-04-26T06:29:05.365Z,29.60
2019-04-26T06:31:47.533Z,28.80
2019-04-26T06:34:43.413Z,30.20
2019-04-26T06:37:44.071Z,29.80
2019-04-26T06:40:22.775Z,30.10
2019-04-26T06:43:37.056Z,29.40
2019-04-26T06:46:49.805Z,29.60
2019-04-26T06:49:40.159Z,28.60
2019-04-26T06:52:16.358Z,29.30
2019-04-26T06:55:37.451Z,29.40
2019-04-26T06:58:52.802Z,29.50
2019-04-26T07:01:38.402Z,28.20
2019-04-26T07:04:47.703Z,28.60
2019-04-26T07:07:59.479Z,27.30
2019-04-26T07:11:04.878Z,24.80
2019-04-26T07:14:11.521Z,24.60
2019-04-26T07:17:01.087Z,25.00
2019-04-26T07:20:02.756Z,24.30
2019-04-26T07:22:59.369Z,24.10
2019-04-26T07:26:04.163Z,23.90
2019-04-26T07:29:29.908Z,23.80
2019-04-26T07:32:18.367Z,23.60
2019-04-26T07:35:24.411Z,23.80
2019-04-26T07:39:09.108Z,23.60
2019-04-26T07:42:27.509Z,23.50
2019-04-26T07:45:24.365Z,23.80
2019-04-26T07:48:47.028Z,23.90
2019-04-26T07:51:57.081Z,23.90
2019-04-26T07:55:15.921Z,23.80
2019-04-26T07:58:22.918Z,23.70
2019-04-26T08:01:15.225Z,23.30
2019-04-26T08:03:57.033Z,23.60
2019-04-26T08:06:45.814Z,22.90
2019-04-26T08:09:26.756Z,23.10
2019-04-26T08:11:53.450Z,23.20
2019-04-26T08:14:51.388Z,23.20
2019-04-26T08:17:53.966Z,23.30
2019-04-26T08:20:39.865Z,23.00
2019-04-26T08:23:34.987Z,23.00
2019-04-26T08:25:47.730Z,22.90
2019-04-26T08:28:20.421Z,23.00
2019-04-26T08:30:56.723Z,23.10
2019-04-26T08:33:35.479Z,23.10
2019-04-26T08:36:10.559Z,23.00
2019-04-26T08:38:42.137Z,23.30
2019-04-26T08:41:13.472Z,23.40
2019-04-26T08:44:12.691Z,23.50
2019-04-26T08:47:15.019Z,23.50
2019-04-26T08:50:01.533Z,23.60
2019-04-26T08:52:44.140Z,23.50
2019-04-26T08:55:18.691Z,23.50
2019-04-26T08:57:52.058Z,23.50
2019-04-26T09:00:49.889Z,23.70
2019-04-26T09:03:45.207Z,23.40
2019-04-26T09:06:27.272Z,23.30
2019-04-26T09:09:00.162Z,23.50
2019-04-26T09:11:35.028Z,23.20
2019-04-26T09:14:07.869Z,23.40
2019-04-26T09:16:49.789Z,23.50
2019-04-26T09:19:11.813Z,23.50
2019-04-26T09:21:54.581Z,23.70
2019-04-26T09:24:36.810Z,23.70
2019-04-26T09:27:38.363Z,23.80
2019-04-26T09:30:14.086Z,23.60
2019-04-26T09:33:03.234Z,23.40
2019-04-26T09:35:33.993Z,23.20
2019-04-26T09:38:04.637Z,23.50
2019-04-26T09:40:35.300Z,23.80
2019-04-26T09:43:33.756Z,24.20
2019-04-26T09:46:26.358Z,24.20
2019-04-26T09:49:07.090Z,24.00
2019-04-26T09:51:39.048Z,24.00
2019-04-26T09:54:09.380Z,23.80
2019-04-26T09:56:39.958Z,23.90
2019-04-26T09:59:10.650Z,24.20
2019-04-26T10:01:41.245Z,24.30
2019-04-26T10:04:11.835Z,24.40
2019-04-26T10:06:42.464Z,24.80
2019-04-26T10:09:17.197Z,25.10
2019-04-26T10:11:54.269Z,24.90
2019-04-26T10:14:35.268Z,24.80
2019-04-26T10:17:24.710Z,24.80
2019-04-26T10:19:57.232Z,24.70
2019-04-26T10:22:30.823Z,24.60
2019-04-26T10:25:02.546Z,24.80
2019-04-26T10:27:36.453Z,25.10
2019-04-26T10:30:09.503Z,25.20
2019-04-26T10:32:41.355Z,25.30
2019-04-26T10:35:12.017Z,25.30
2019-04-26T10:37:43.871Z,25.50
2019-04-26T10:40:14.890Z,25.70
2019-04-26T10:42:45.646Z,25.70
2019-04-26T10:45:16.944Z,25.70
2019-04-26T10:47:47.593Z,25.70
2019-04-26T10:50:18.532Z,25.50
2019-04-26T10:53:11.209Z,25.60
2019-04-26T10:55:59.761Z,25.50
2019-04-26T10:58:51.494Z,25.80
2019-04-26T11:01:22.164Z,26.10
2019-04-26T11:03:52.938Z,25.90
2019-04-26T11:06:24.138Z,25.70
2019-04-26T11:08:56.203Z,26.10
2019-04-26T11:11:26.758Z,26.00
2019-04-26T11:13:57.598Z,26.00
2019-04-26T11:16:28.280Z,26.30
2019-04-26T11:19:01.244Z,26.30
2019-04-26T11:21:31.170Z,26.40
2019-04-26T11:24:01.802Z,26.30
2019-04-26T11:26:34.701Z,26.60
2019-04-26T11:29:04.964Z,26.80
2019-04-26T11:31:35.638Z,26.80
2019-04-26T11:34:06.289Z,26.90
2019-04-26T11:36:37.556Z,26.90
2019-04-26T11:39:11.568Z,27.10
2019-04-26T11:41:42.696Z,27.10
2019-04-26T11:44:13.453Z,27.30
2019-04-26T11:46:45.222Z,27.20
2019-04-26T11:49:16.068Z,27.10
2019-04-26T11:51:46.708Z,27.00
2019-04-26T11:54:20.797Z,27.00
2019-04-26T11:56:50.469Z,26.70
2019-04-26T11:59:22.331Z,26.70
2019-04-26T12:01:52.891Z,26.80
2019-04-26T12:04:41.060Z,26.90
2019-04-26T12:07:32.824Z,26.70
2019-04-26T12:10:05.806Z,26.50
2019-04-26T12:12:36.959Z,26.40
2019-04-26T12:15:08.441Z,26.50
2019-04-26T12:17:39.999Z,26.60
2019-04-26T12:20:11.105Z,26.40
2019-04-26T12:22:43.266Z,26.70
2019-04-26T12:25:14.413Z,26.80
2019-04-26T12:27:45.262Z,27.40
2019-04-26T12:30:16.292Z,27.60
2019-04-26T12:32:46.878Z,27.60
2019-04-26T12:35:17.357Z,27.80
2019-04-26T12:37:50.708Z,27.60
2019-04-26T12:40:21.169Z,27.90
2019-04-26T12:42:51.810Z,28.10
2019-04-26T12:45:56.639Z,27.40
2019-04-26T12:48:27.272Z,27.40
2019-04-26T12:50:59.265Z,27.60
2019-04-26T12:53:31.185Z,27.40
2019-04-26T12:56:02.091Z,27.60
2019-04-26T12:58:32.836Z,27.80
2019-04-26T13:01:03.506Z,27.90
2019-04-26T13:03:34.044Z,27.70
2019-04-26T13:06:04.715Z,27.50
2019-04-26T13:08:35.286Z,27.30
2019-04-26T13:11:24.810Z,26.90
2019-04-26T13:14:07.610Z,26.90
2019-04-26T13:16:46.346Z,26.90
2019-04-26T13:19:19.886Z,26.60
2019-04-26T13:21:49.853Z,26.50
2019-04-26T13:24:20.515Z,26.40
2019-04-26T13:26:51.129Z,26.40
2019-04-26T13:29:21.708Z,26.20
2019-04-26T13:31:52.385Z,26.30
2019-04-26T13:34:23.093Z,26.10
2019-04-26T13:36:53.689Z,26.10
2019-04-26T13:39:24.312Z,26.30
2019-04-26T13:42:02.901Z,26.40
2019-04-26T13:44:46.247Z,26.30
2019-04-26T13:47:42.033Z,26.20
2019-04-26T13:50:26.566Z,26.30
2019-04-26T13:52:58.107Z,26.10
2019-04-26T13:55:29.444Z,26.10
2019-04-26T13:58:01.293Z,26.30
2019-04-26T14:00:33.160Z,26.20
2019-04-26T14:03:04.729Z,26.20
2019-04-26T14:05:37.846Z,26.20
2019-04-26T14:08:08.457Z,26.20
2019-04-26T14:10:39.221Z,26.30
2019-04-26T14:13:09.757Z,26.10
2019-04-26T14:15:43.651Z,26.20
2019-04-26T14:18:12.468Z,26.20
2019-04-26T14:20:42.928Z,26.20
2019-04-26T14:23:45.242Z,26.10
2019-04-26T14:26:21.729Z,26.00
2019-04-26T14:28:54.229Z,26.00
2019-04-26T14:31:24.603Z,25.80
2019-04-26T14:33:55.445Z,25.80
2019-04-26T14:36:26.768Z,25.60
2019-04-26T14:39:05.718Z,25.70
2019-04-26T14:41:30.675Z,25.70
2019-04-26T14:44:14.450Z,25.60
2019-04-26T14:46:33.548Z,25.70
2019-04-26T14:49:05.749Z,25.60
2019-04-26T14:51:36.461Z,25.70
2019-04-26T14:54:11.014Z,25.70
2019-04-26T14:56:51.710Z,25.60
2019-04-26T14:59:12.204Z,25.60
2019-04-26T15:01:57.285Z,25.70
2019-04-26T15:05:02.567Z,25.60
2019-04-26T15:07:32.531Z,25.50
2019-04-26T15:10:06.868Z,25.50
2019-04-26T15:12:45.899Z,25.50
2019-04-26T15:15:08.154Z,25.40
2019-04-26T15:17:38.828Z,25.30
2019-04-26T15:20:09.497Z,25.20
2019-04-26T15:22:46.296Z,25.30
2019-04-26T15:25:12.765Z,25.20
2019-04-26T15:27:44.210Z,25.30
2019-04-26T15:30:15.989Z,25.20
2019-04-26T15:32:46.543Z,25.20
2019-04-26T15:35:18.040Z,25.20
2019-04-26T15:37:48.793Z,25.10
2019-04-26T15:40:53.785Z,25.00
2019-04-26T15:43:35.198Z,25.00
2019-04-26T15:46:17.653Z,25.00
2019-04-26T15:49:19.391Z,24.90
2019-04-26T15:51:49.934Z,24.90
2019-04-26T15:54:21.641Z,24.80
2019-04-26T15:56:53.750Z,24.80
2019-04-26T15:59:25.805Z,24.80
2019-04-26T16:01:56.547Z,24.70
2019-04-26T16:04:27.304Z,24.70
2019-04-26T16:07:02.252Z,24.70
2019-04-26T16:09:32.919Z,24.70
2019-04-26T16:12:03.835Z,24.60
2019-04-26T16:14:36.742Z,24.60
2019-04-26T16:17:07.121Z,24.60
2019-04-26T16:19:37.742Z,24.50
2019-04-26T16:22:08.381Z,24.50
2019-04-26T16:24:39.035Z,24.50
2019-04-26T16:27:09.538Z,24.30
2019-04-26T16:29:59.674Z,24.20
2019-04-26T16:32:47.168Z,24.20
2019-04-26T16:35:18.213Z,24.00
2019-04-26T16:37:48.007Z,23.90
2019-04-26T16:40:18.809Z,23.80
2019-04-26T16:42:54.669Z,23.60
2019-04-26T16:45:22.691Z,23.50
2019-04-26T16:47:53.326Z,23.40
2019-04-26T16:50:31.436Z,23.30
2019-04-26T16:52:57.035Z,23.20
2019-04-26T16:55:27.561Z,23.10
2019-04-26T16:58:04.446Z,23.10
2019-04-26T17:00:50.170Z,22.90
2019-04-26T17:03:08.605Z,22.90
2019-04-26T17:05:47.603Z,22.90
2019-04-26T17:08:12.974Z,22.80
2019-04-26T17:10:45.206Z,22.80
2019-04-26T17:13:15.833Z,22.80
2019-04-26T17:15:53.453Z,22.80
2019-04-26T17:18:23.892Z,22.80
2019-04-26T17:20:53.920Z,22.80
2019-04-26T17:23:34.261Z,22.70
2019-04-26T17:26:15.027Z,22.70
2019-04-26T17:28:45.617Z,22.60
2019-04-26T17:31:16.481Z,22.50
2019-04-26T17:33:48.144Z,22.40
2019-04-26T17:36:18.821Z,22.30
2019-04-26T17:38:50.565Z,22.20
2019-04-26T17:41:25.831Z,22.10
2019-04-26T17:44:08.418Z,22.00
2019-04-26T17:46:28.596Z,21.90
2019-04-26T17:49:00.506Z,21.80
2019-04-26T17:51:39.500Z,21.70
2019-04-26T17:54:25.414Z,21.60
2019-04-26T17:56:39.427Z,21.60
2019-04-26T17:59:09.176Z,21.50
2019-04-26T18:01:47.398Z,21.40
2019-04-26T18:04:13.479Z,21.30
2019-04-26T18:06:45.459Z,21.30
2019-04-26T18:09:38.028Z,21.20
2019-04-26T18:11:48.979Z,21.20
2019-04-26T18:14:21.676Z,21.20
2019-04-26T18:17:01.335Z,21.20
2019-04-26T18:19:42.976Z,21.10
2019-04-26T18:22:21.182Z,21.10
2019-04-26T18:24:51.767Z,21.00
2019-04-26T18:27:23.968Z,20.90
2019-04-26T18:29:54.707Z,20.80
2019-04-26T18:32:25.412Z,20.70
2019-04-26T18:34:57.944Z,20.60
2019-04-26T18:37:28.503Z,20.60
2019-04-26T18:40:02.017Z,20.60
2019-04-26T18:42:33.493Z,20.50
2019-04-26T18:45:05.799Z,20.50
2019-04-26T18:47:39.745Z,20.40
2019-04-26T18:50:10.886Z,20.20
2019-04-26T18:52:52.671Z,20.20
2019-04-26T18:55:29.195Z,20.10
2019-04-26T18:58:03.622Z,20.10
2019-04-26T19:00:35.639Z,20.10
2019-04-26T19:03:06.889Z,20.20
2019-04-26T19:05:37.798Z,20.10
2019-04-26T19:08:10.048Z,19.90
2019-04-26T19:10:43.570Z,19.90
2019-04-26T19:13:39.040Z,19.90
2019-04-26T19:16:31.937Z,19.80
2019-04-26T19:19:07.975Z,19.70
2019-04-26T19:21:42.039Z,19.60
2019-04-26T19:24:19.509Z,19.60
2019-04-26T19:26:50.002Z,19.50
2019-04-26T19:29:27.044Z,19.50
2019-04-26T19:31:52.256Z,19.40
2019-04-26T19:34:26.052Z,19.40
2019-04-26T19:36:56.359Z,19.20
2019-04-26T19:39:32.290Z,19.20
2019-04-26T19:42:02.473Z,19.10
2019-04-26T19:44:34.951Z,19.00
2019-04-26T19:47:44.167Z,19.10
2019-04-26T19:50:42.322Z,19.00
2019-04-26T19:53:21.272Z,19.00
2019-04-26T19:56:11.655Z,19.00
2019-04-26T19:58:42.510Z,19.00
2019-04-26T20:01:16.618Z,19.00
2019-04-26T20:03:47.349Z,19.00
2019-04-26T20:06:19.023Z,19.00
2019-04-26T20:08:51.955Z,18.90
2019-04-26T20:11:23.888Z,18.90
2019-04-26T20:13:55.856Z,18.90
2019-04-26T20:16:28.343Z,18.80
2019-04-26T20:18:58.935Z,18.80
2019-04-26T20:21:32.080Z,18.80
2019-04-26T20:24:01.998Z,18.70
2019-04-26T20:26:32.635Z,18.70
2019-04-26T20:29:06.237Z,18.60
2019-04-26T20:31:47.596Z,18.50
2019-04-26T20:34:18.149Z,18.50
2019-04-26T20:36:47.806Z,18.40
2019-04-26T20:39:21.093Z,18.40
2019-04-26T20:42:00.646Z,18.40
2019-04-26T20:44:28.860Z,18.30
2019-04-26T20:46:59.011Z,18.30
2019-04-26T20:49:29.608Z,18.30
2019-04-26T20:52:00.029Z,18.30
2019-04-26T20:54:31.572Z,18.30
2019-04-26T20:57:02.346Z,18.30
2019-04-26T20:59:33.051Z,18.30
2019-04-26T21:02:07.876Z,18.30
2019-04-26T21:04:38.471Z,18.30
2019-04-26T21:07:11.448Z,18.30
2019-04-26T21:09:43.422Z,18.30
2019-04-26T21:12:18.223Z,18.30
2019-04-26T21:14:47.480Z,18.20
2019-04-26T21:17:19.345Z,18.10
2019-04-26T21:19:54.916Z,18.10
2019-04-26T21:22:28.413Z,18.00
2019-04-26T21:25:04.364Z,18.00
2019-04-26T21:27:46.714Z,17.90
2019-04-26T21:30:38.583Z,17.90
2019-04-26T21:33:28.816Z,17.90
2019-04-26T21:36:25.292Z,17.90
2019-04-26T21:39:13.760Z,17.90
2019-04-26T21:41:48.293Z,17.80
2019-04-26T21:44:18.063Z,17.80
2019-04-26T21:46:55.902Z,17.70
2019-04-26T21:49:24.403Z,17.70
2019-04-26T21:51:54.990Z,17.70
2019-04-26T21:54:25.540Z,17.60
2019-04-26T21:56:57.227Z,17.50
2019-04-26T21:59:27.738Z,17.40
2019-04-26T22:01:59.237Z,17.30
2019-04-26T22:04:34.117Z,17.30
2019-04-26T22:07:05.138Z,17.20
2019-04-26T22:09:52.880Z,17.10
2019-04-26T22:12:27.384Z,17.10
2019-04-26T22:15:13.851Z,17.00
2019-04-26T22:17:46.853Z,16.90
2019-04-26T22:20:30.676Z,16.90
2019-04-26T22:23:21.355Z,17.10
2019-04-26T22:25:52.052Z,17.10
2019-04-26T22:28:23.535Z,17.20
2019-04-26T22:31:06.842Z,17.20
2019-04-26T22:33:34.106Z,17.20
2019-04-26T22:36:06.684Z,17.30
2019-04-26T22:38:37.319Z,17.40
2019-04-26T22:41:10.412Z,17.40
2019-04-26T22:44:07.488Z,17.50
2019-04-26T22:46:58.874Z,17.40
2019-04-26T22:49:27.553Z,17.20
2019-04-26T22:51:58.864Z,17.00
2019-04-26T22:54:29.479Z,16.80
2019-04-26T22:57:03.797Z,16.70
2019-04-26T22:59:33.991Z,16.60
2019-04-26T23:02:06.867Z,16.50
2019-04-26T23:04:37.759Z,16.50
2019-04-26T23:07:10.960Z,16.40
2019-04-26T23:09:47.447Z,16.40
2019-04-26T23:12:41.548Z,16.30
2019-04-26T23:15:43.136Z,16.30
2019-04-26T23:18:33.493Z,16.20
2019-04-26T23:21:07.762Z,16.10
2019-04-26T23:23:40.961Z,16.00
2019-04-26T23:26:12.905Z,15.90
2019-04-26T23:28:43.988Z,15.80
2019-04-26T23:31:14.580Z,15.70
2019-04-26T23:33:45.228Z,15.60
2019-04-26T23:36:18.349Z,15.50
2019-04-26T23:38:47.932Z,15.40
2019-04-26T23:41:18.481Z,15.40
2019-04-26T23:43:49.142Z,15.30
2019-04-26T23:46:22.872Z,15.20
2019-04-26T23:48:53.727Z,15.20
2019-04-26T23:51:26.250Z,15.10
2019-04-26T23:53:58.247Z,15.00
2019-04-26T23:56:30.775Z,15.00
2019-04-26T23:59:01.334Z,15.00
